Union, NJ (07083)

7:15 AM EDT on September 23, 2014 (GMT -0400)
Roselle Park | Change Station
CLOSE
Current Station
Personal Weather Station
Location: Roselle Park, NJ
Elevation: 98 ft
Nearby Weather Stations

Elev 98 ft 40.67 °N, 74.27 °W | Updated 5 seconds ago

Clear
Clear
49.1 °F
Feels Like 49 °F
N
0.0
Wind Variable Wind from East
Gusts 0.0 mph

Today
High -- | Low -- °F
--% Chance of Precip.
Yesterday
High -- | Low -- °F
Precip. -- in
6:45 AM 6:52 PM
Waning Crescent, 1% visible
Pressure 30.28 in
Visibility 10.0 miles
Clouds Few 25000 ft
Windchill 49 °F
Dew Point 42 °F
Humidity 75%
Rainfall 0.00 in
Snow Depth Not available.
UV 0 out of 12
Pollen 3.10 out of 12
Air Quality Not available.
Flu Activity Not available.
METAR KEWR 231051Z 00000KT 10SM FEW250 11/04 A3028 RMK AO2 SLP254 T01110044

More Conditions Fewer Conditions

Pressure 30.28 in
Visibility 10.0 miles
Clouds Few 25000 ft
Windchill 49 °F
Dew Point 42 °F
Humidity 75%
Rainfall 0.00 in
Snow Depth Not available.
UV 0 out of 12
Pollen 3.10 out of 12
Air Quality Not available.
Flu Activity Not available.
METAR KEWR 231051Z 00000KT 10SM FEW250 11/04 A3028 RMK AO2 SLP254 T01110044

More Conditions Fewer Conditions

10-Day Weather Forecast

Almanac

Astronomy

Sep. 23, 2014 Rise Set
Actual Time 6:45 AM EDT 6:52 PM EDT
Civil Twilight 6:18 AM EDT 7:19 PM EDT
Nautical Twilight 5:46 AM EDT 7:51 PM EDT
Astronomical Twilight 5:13 AM EDT 8:24 PM EDT
Moon 6:07 AM EDT 6:30 PM EDT
Length of Visible Light 13h 01m
Length of Day
12h 07m
Tomorrow will be 2m 41s shorter.
Waning Crescent, 1% of the Moon is Illuminated
Today
Waning Crescent
Sep 24
New
Oct 1
First Quarter
Oct 8
Full
Oct 15
Last Quarter

Today's Extremes

State Highs State Lows

Community

WunderPhotos

Upload Photos

1,755,645 photos uploaded!

Nearby

Snow Depth

Station Depth Elevation
No new snow has been reported.

Earthquake Activity

City Distance Mag. Time & Date
No recent earthquake activity has been reported nearby.
Minimum magnitude displayed is 2.5.

Coastal Water Temperatures

Place Temperature
Sandy Hook, NJ 66.9 °F
The Battery, NY 70.0 °F
Bergen Point West Reach, NJ 69.1 °F
Kings Point, NY 64.9 °F

Nearby Weather Stations